EPKKLHBP

Guest
Details From EPKK - BALICE
To LHBP - Ferihegy (Budapest)
Flight Number -
Tags generated
Created
Modified
Stats Distance 160 nm / 296 km
Max Altitude 12,600 ft / 3,840 m
Waypoints 3
Social Downloads 1
Likes 0
Share VATSIM

Download

Looking for another format? Having issues loading an existing format? Contact us
Advertisement - Login to hide

Notes

Basic altitude profile: - Ascent Rate: 2500ft/min - Ascent Speed: 250kts - Cruise Altitude: 35000ft - Cruise Speed: 420kts - Descent Rate: 1500ft/min - Descent Speed: 250kts Options: - Use NATs: yes - Use PACOTS: yes - Use low airways: yes - Use high airways: no

Route

EPKK KULIN LHBP

ID Type Via Altitude Latitude Longitude Leg Dist Tot Dist Heading (true) Name
O EPKK APT - 0 ft / 0 m 50.07782˚ 19.78550˚ - 0 nm - BALICE
KULIN FIX - 12,600 ft / 3,840 m 48.49222˚ 19.45139˚ 96 nm 96 nm 188° / 188° -
O LHBP APT - 0 ft / 0 m 47.43529˚ 19.26579˚ 63 nm 160 nm 187° / 187° Ferihegy (Budapest)

Altitude Profile

Advertisement - Login to hide

EPKK

Details ICAO EPKK (KRK)
Name BALICE
Region Poland
Timezone Europe/Warsaw (UTC+2.0)
Stats Elevation 791 ft / 241 m (AMSL)
Location 50.077821° 19.785503°
Runways 1
Magnetic Variation 5.256° E

METAR

EPKK 241200Z 05011KT CAVOK 23/12 Q1021

Decode

TAF

TAF EPKK 241130Z 2412/2512 06010KT CAVOK= TAF EPWA 241130Z 2412/2512 06011KT CAVOK TEMPO 2509/2512 -SHRA BKN030CB

Decode

Departure Runways

ID Width Length Bearing (true) Bearing (mag) Surface Threshold Offset Overrun Length
07 197 ft / 60 m 8,343 ft / 2,543 m 77.75° 72.49° Concrete 0 ft / 0 m 0 ft / 0 m
25 197 ft / 60 m 8,343 ft / 2,543 m 257.77° 252.51° Concrete 784 ft / 239 m 0 ft / 0 m

LHBP

Details ICAO LHBP (BUD)
Name Ferihegy (Budapest)
Region Hungary
Timezone Europe/Budapest (UTC+2.0)
Stats Elevation 495 ft / 151 m (AMSL)
Location 47.435292° 19.265792°
Runways 3
Magnetic Variation 4.815° E

METAR

LHBP 241200Z 08006KT 040V110 CAVOK 27/15 Q1016 NOSIG

Decode

TAF

TAF LHBP 241115Z 2412/2512 05006KT CAVOK TEMPO 2412/2422 VRB15G25KT 4500 TSRA SCT040CB BKN060 BECMG 2505/2507 04009KT PROB30 TEMPO 2505/2512 4000 SHRA SCT035TCU BKN080

Decode

Destination Runways

ID Width Length Bearing (true) Bearing (mag) Surface Threshold Offset Overrun Length
13 250 ft / 76 m 6,000 ft / 1,829 m 132.54° 127.73° Unknown 0 ft / 0 m 0 ft / 0 m
13L 196 ft / 60 m 12,487 ft / 3,806 m 132.54° 127.73° Asphalt 0 ft / 0 m 200 ft / 61 m
13R 196 ft / 60 m 10,145 ft / 3,092 m 132.49° 127.68° Asphalt 0 ft / 0 m 197 ft / 60 m
31 250 ft / 76 m 6,000 ft / 1,829 m 312.55° 307.74° Unknown 0 ft / 0 m 0 ft / 0 m
31L 196 ft / 60 m 10,145 ft / 3,092 m 312.51° 307.70° Asphalt 0 ft / 0 m 197 ft / 60 m
31R 196 ft / 60 m 12,487 ft / 3,806 m 312.56° 307.75° Asphalt 0 ft / 0 m 197 ft / 60 m

Approach Navaids

Runway Type Ident Frequency Range Bearing (true) Bearing (mag) Slope Elevation
13L Localiser BPL 109.15 MHz 27 nm / 50 km 132.41° 127.60° - 495 ft / 151 m (AMSL)
13L Glidescope BPL 109.15 MHz 27 nm / 50 km 132.41° 127.60° 3.00° 495 ft / 151 m (AMSL)
13L DME BPL 109.15 MHz 27 nm / 50 km - - - 495 ft / 151 m (AMSL)
13R Localiser FER 110.50 MHz 27 nm / 50 km 132.38° 127.57° - 495 ft / 151 m (AMSL)
13R Glidescope FER 110.50 MHz 27 nm / 50 km 132.38° 127.57° 3.00° 495 ft / 151 m (AMSL)
13R DME FER 110.50 MHz 27 nm / 50 km - - - 495 ft / 151 m (AMSL)
31L Localiser FHL 111.50 MHz 14 nm / 26 km 312.38° 307.57° - 495 ft / 151 m (AMSL)
31L Glidescope FHL 111.50 MHz 14 nm / 26 km 312.38° 307.57° 3.00° 495 ft / 151 m (AMSL)
31L DME FHL 111.50 MHz 14 nm / 26 km - - - 495 ft / 151 m (AMSL)
31R Localiser BPR 109.50 MHz 36 nm / 67 km 312.41° 307.60° - 495 ft / 151 m (AMSL)
31R Glidescope BPR 109.50 MHz 32 nm / 59 km 312.41° 307.60° 3.00° 495 ft / 151 m (AMSL)
31R DME BPR 109.50 MHz 32 nm / 59 km - - - 495 ft / 151 m (AMSL)

Popular Alternatives